Time;durP1;ratioP1;P1;durP2;ratioP2;P2;SDS_P1;SDS_P2;PMS_P1;PMS_P2;Temp;Humidity;BMP_temperature;BMP_pressure;BME280_temperature;BME280_humidity;BME280_pressure;Samples;Min_cycle;Max_cycle;Signal;HPM_P1;HPM_P2
2023/12/15 00:00:19;;;;;;;12.33;9.53;;;3.90;99.90;;;;;;5023200;28;20198;-63
2023/12/15 00:02:45;;;;;;;11.43;8.80;;;3.80;99.90;;;;;;5037784;28;20289;-64
2023/12/15 00:05:11;;;;;;;11.43;8.33;;;4.00;99.90;;;;;;5017251;28;20203;-61
2023/12/15 00:07:36;;;;;;;10.37;8.53;;;3.90;99.90;;;;;;5033894;28;20205;-62
2023/12/15 00:10:03;;;;;;;12.20;8.80;;;3.80;99.90;;;;;;5029222;28;20206;-55
2023/12/15 00:12:28;;;;;;;11.43;8.57;;;3.80;99.90;;;;;;5020051;28;20595;-54
2023/12/15 00:14:54;;;;;;;9.83;7.70;;;3.70;99.90;;;;;;5041368;28;20207;-54
2023/12/15 00:17:20;;;;;;;10.60;8.00;;;3.80;99.90;;;;;;5032377;28;20203;-55
2023/12/15 00:19:45;;;;;;;11.97;8.33;;;3.80;99.90;;;;;;5031776;28;20256;-55
2023/12/15 00:22:11;;;;;;;8.57;7.37;;;3.90;99.90;;;;;;5033244;28;20234;-55
2023/12/15 00:24:36;;;;;;;10.07;8.57;;;4.00;99.90;;;;;;5013683;28;20263;-54
2023/12/15 00:27:02;;;;;;;10.40;8.23;;;4.10;99.90;;;;;;5038612;28;20230;-54
2023/12/15 00:29:28;;;;;;;13.13;8.20;;;4.10;99.90;;;;;;5029039;28;20701;-54
2023/12/15 00:31:53;;;;;;;11.73;7.27;;;4.20;99.90;;;;;;5035363;28;20224;-54
2023/12/15 00:34:19;;;;;;;9.23;8.27;;;4.10;99.90;;;;;;5034749;28;21112;-55
2023/12/15 00:36:44;;;;;;;10.27;7.27;;;4.00;99.90;;;;;;5030197;28;20213;-53
2023/12/15 00:39:10;;;;;;;8.57;7.67;;;4.10;99.90;;;;;;5041656;28;20325;-55
2023/12/15 00:41:35;;;;;;;10.27;7.33;;;4.30;99.90;;;;;;5031267;28;20578;-54
2023/12/15 00:44:02;;;;;;;10.63;6.63;;;4.40;99.90;;;;;;5032895;28;20221;-54
2023/12/15 00:46:28;;;;;;;8.83;6.83;;;4.40;99.90;;;;;;5034225;28;20199;-54
2023/12/15 00:48:53;;;;;;;12.47;8.63;;;4.50;99.90;;;;;;5029218;28;20691;-54
2023/12/15 00:51:19;;;;;;;11.10;7.60;;;4.50;99.90;;;;;;5030515;28;20697;-54
2023/12/15 00:53:44;;;;;;;12.17;8.23;;;4.60;99.90;;;;;;5038729;28;20205;-54
2023/12/15 00:56:10;;;;;;;15.77;7.93;;;4.60;99.90;;;;;;5012935;28;20333;-54
2023/12/15 00:58:35;;;;;;;11.97;6.87;;;4.60;99.90;;;;;;5038735;28;21151;-54
2023/12/15 01:01:01;;;;;;;8.17;6.37;;;4.30;99.90;;;;;;5032753;28;20285;-63
2023/12/15 01:03:29;;;;;;;9.47;7.33;;;4.10;99.90;;;;;;5024827;28;20253;-55
2023/12/15 01:05:55;;;;;;;7.40;6.67;;;4.20;99.90;;;;;;5015409;28;23168;-55
2023/12/15 01:08:20;;;;;;;10.47;7.33;;;4.00;99.90;;;;;;5026796;28;20397;-54
2023/12/15 01:10:46;;;;;;;13.17;6.83;;;3.90;99.90;;;;;;5033163;28;20617;-54
2023/12/15 01:13:12;;;;;;;10.30;7.47;;;3.90;99.90;;;;;;5025778;28;20203;-64
2023/12/15 01:15:37;;;;;;;10.30;7.73;;;4.00;99.90;;;;;;5013470;28;20198;-51
2023/12/15 01:18:02;;;;;;;10.17;6.60;;;3.90;99.90;;;;;;5009660;28;20195;-51
2023/12/15 01:20:28;;;;;;;13.67;7.27;;;3.90;99.90;;;;;;5015792;28;20259;-51
2023/12/15 01:22:53;;;;;;;9.07;7.27;;;4.40;99.90;;;;;;5037566;28;20198;-51
2023/12/15 01:25:19;;;;;;;8.97;7.40;;;4.50;99.90;;;;;;5034068;28;20275;-50
2023/12/15 01:27:44;;;;;;;9.23;7.20;;;4.60;99.90;;;;;;5033515;28;20228;-50
2023/12/15 01:30:10;;;;;;;7.77;6.97;;;4.60;99.90;;;;;;5037838;28;20206;-50
2023/12/15 01:32:36;;;;;;;10.80;7.07;;;4.50;99.90;;;;;;5038717;28;20305;-55
2023/12/15 01:35:01;;;;;;;14.67;8.27;;;4.40;99.90;;;;;;5016720;28;20189;-55
2023/12/15 01:37:27;;;;;;;11.10;7.70;;;4.50;99.90;;;;;;5037557;28;20337;-56
2023/12/15 01:39:52;;;;;;;9.33;7.33;;;4.60;99.90;;;;;;5036079;28;20205;-58
2023/12/15 01:42:18;;;;;;;10.07;7.50;;;4.60;99.90;;;;;;5016206;28;20241;-50
2023/12/15 01:44:44;;;;;;;9.53;6.97;;;4.60;99.90;;;;;;5039129;28;20199;-50
2023/12/15 01:47:14;;;;;;;7.80;6.83;;;4.50;99.90;;;;;;5040887;28;20228;-49
2023/12/15 01:49:40;;;;;;;9.63;8.00;;;4.40;99.90;;;;;;5037275;28;20705;-50
2023/12/15 01:52:11;;;;;;;9.87;7.53;;;4.10;99.90;;;;;;5041258;28;20233;-52
2023/12/15 01:54:36;;;;;;;10.07;6.87;;;3.90;99.90;;;;;;5029912;28;20309;-50
2023/12/15 01:57:02;;;;;;;10.33;7.83;;;3.80;99.90;;;;;;5032328;28;20299;-50
2023/12/15 01:59:41;;;;;;;9.00;6.30;;;3.60;99.90;;;;;;5031389;28;20264;-51
2023/12/15 02:02:07;;;;;;;10.70;6.90;;;3.60;99.90;;;;;;5018269;28;20217;-50
2023/12/15 02:04:32;;;;;;;11.07;6.97;;;3.40;99.90;;;;;;5033677;28;20230;-49
2023/12/15 02:06:57;;;;;;;10.60;6.73;;;3.50;99.90;;;;;;5033565;28;20205;-50
2023/12/15 02:09:23;;;;;;;10.90;7.87;;;3.60;99.90;;;;;;5040801;28;20313;-50
2023/12/15 02:11:48;;;;;;;9.23;7.33;;;3.90;99.90;;;;;;5037253;28;20232;-50
2023/12/15 02:14:14;;;;;;;17.57;8.63;;;4.20;99.90;;;;;;5035863;28;20213;-50
2023/12/15 02:16:39;;;;;;;11.60;7.73;;;4.10;99.90;;;;;;5033936;28;20276;-51
2023/12/15 02:19:06;;;;;;;10.93;7.57;;;4.30;99.90;;;;;;5034289;28;20233;-50
2023/12/15 02:21:33;;;;;;;9.97;6.90;;;4.30;99.90;;;;;;5027796;28;20674;-51
2023/12/15 02:23:58;;;;;;;9.83;7.33;;;4.20;99.90;;;;;;5029064;28;21482;-50
2023/12/15 02:26:24;;;;;;;9.73;6.30;;;4.10;99.90;;;;;;5022755;28;20252;-50
2023/12/15 02:28:49;;;;;;;9.87;7.50;;;4.00;99.90;;;;;;5033867;28;20828;-51
2023/12/15 02:31:18;;;;;;;10.00;7.27;;;3.90;99.90;;;;;;5034090;28;20219;-50
2023/12/15 02:33:43;;;;;;;11.77;6.90;;;3.90;99.90;;;;;;5035149;28;20200;-50
2023/12/15 02:36:09;;;;;;;10.73;8.27;;;4.00;99.90;;;;;;5036421;28;20201;-50
2023/12/15 02:38:34;;;;;;;13.50;7.10;;;3.80;99.90;;;;;;5042724;28;20194;-51
2023/12/15 02:41:00;;;;;;;9.20;7.13;;;4.00;99.90;;;;;;5039007;28;20880;-50
2023/12/15 02:43:25;;;;;;;9.20;7.93;;;4.00;99.90;;;;;;5036775;28;20208;-50
2023/12/15 02:45:50;;;;;;;8.83;6.90;;;4.10;99.90;;;;;;5030396;28;20225;-50
2023/12/15 02:48:16;;;;;;;9.50;7.40;;;4.00;99.90;;;;;;5033879;28;20695;-50
2023/12/15 02:50:42;;;;;;;10.93;7.23;;;3.80;99.90;;;;;;5034893;28;20202;-50
2023/12/15 02:53:08;;;;;;;10.20;7.17;;;3.70;99.90;;;;;;5036113;28;20242;-51
2023/12/15 02:55:33;;;;;;;10.27;7.90;;;3.40;99.90;;;;;;5027974;28;20625;-51
2023/12/15 02:57:59;;;;;;;10.53;7.97;;;3.40;99.90;;;;;;5014503;28;20226;-51
2023/12/15 03:00:24;;;;;;;12.20;6.70;;;3.40;99.90;;;;;;5025536;28;20206;-51
2023/12/15 03:02:50;;;;;;;11.87;7.70;;;3.40;99.90;;;;;;5021195;28;20210;-51
2023/12/15 03:05:15;;;;;;;9.80;7.83;;;3.30;99.90;;;;;;5039310;28;20205;-51
2023/12/15 03:07:41;;;;;;;12.17;8.17;;;3.10;99.90;;;;;;5030744;28;20198;-51
2023/12/15 03:10:07;;;;;;;12.90;8.53;;;2.70;99.90;;;;;;5016279;28;20201;-51
2023/12/15 03:12:32;;;;;;;10.90;7.37;;;2.90;99.90;;;;;;5040536;28;20229;-51
2023/12/15 03:14:58;;;;;;;13.37;8.70;;;3.00;99.90;;;;;;5036536;28;20206;-51
2023/12/15 03:17:24;;;;;;;10.80;8.63;;;3.00;99.90;;;;;;5043452;28;20288;-51
2023/12/15 03:19:50;;;;;;;12.27;8.93;;;3.10;99.90;;;;;;5032752;28;20297;-51
2023/12/15 03:22:16;;;;;;;13.83;8.43;;;3.20;99.90;;;;;;5036023;28;20236;-51
2023/12/15 03:24:41;;;;;;;12.00;8.20;;;3.00;99.90;;;;;;5042660;28;20226;-51
2023/12/15 03:27:07;;;;;;;12.77;9.37;;;3.00;99.90;;;;;;5043628;28;20699;-51
2023/12/15 03:29:32;;;;;;;12.37;7.90;;;3.10;99.90;;;;;;5027947;28;20248;-49
2023/12/15 03:31:58;;;;;;;11.13;8.10;;;3.20;99.90;;;;;;5041461;28;20230;-50
2023/12/15 03:34:23;;;;;;;10.17;8.10;;;3.20;99.90;;;;;;5031995;28;20286;-50
2023/12/15 03:36:49;;;;;;;14.90;9.03;;;3.20;99.90;;;;;;5034696;28;20671;-50
2023/12/15 03:39:14;;;;;;;9.93;7.70;;;3.30;99.90;;;;;;5039503;28;20211;-52
2023/12/15 03:41:40;;;;;;;10.63;8.73;;;3.40;99.90;;;;;;5037148;28;20611;-50
2023/12/15 03:44:05;;;;;;;11.27;8.80;;;3.20;99.90;;;;;;5035424;28;20214;-49
2023/12/15 03:46:31;;;;;;;11.47;8.40;;;3.00;99.90;;;;;;5039734;28;20281;-50
2023/12/15 03:48:56;;;;;;;12.80;8.40;;;2.40;99.90;;;;;;5029429;28;20367;-50
2023/12/15 03:51:22;;;;;;;12.83;9.57;;;2.30;99.90;;;;;;5037991;28;20218;-51
2023/12/15 03:53:47;;;;;;;14.80;8.77;;;2.50;99.90;;;;;;5021795;28;20195;-50
2023/12/15 03:56:13;;;;;;;12.30;8.63;;;2.50;99.90;;;;;;5029572;28;20273;-49
2023/12/15 03:58:38;;;;;;;12.80;9.43;;;2.80;99.90;;;;;;5034357;28;20213;-50
2023/12/15 04:01:04;;;;;;;17.17;8.60;;;2.70;99.90;;;;;;5033783;28;20199;-50
2023/12/15 04:03:30;;;;;;;12.93;8.43;;;2.80;99.90;;;;;;5036967;28;20751;-51
2023/12/15 04:05:55;;;;;;;13.20;7.80;;;2.50;99.90;;;;;;5030533;28;20728;-51
2023/12/15 04:08:21;;;;;;;15.87;8.53;;;1.80;99.90;;;;;;5031925;28;20207;-51
2023/12/15 04:10:46;;;;;;;12.97;8.30;;;1.80;99.90;;;;;;5039808;28;20256;-51
2023/12/15 04:13:12;;;;;;;13.20;8.90;;;2.00;99.90;;;;;;5042593;28;20215;-51
2023/12/15 04:15:38;;;;;;;14.43;9.37;;;2.10;99.90;;;;;;5040565;28;20752;-51
2023/12/15 04:18:04;;;;;;;15.43;8.57;;;2.30;99.90;;;;;;5035690;28;20214;-51
2023/12/15 04:20:29;;;;;;;14.23;8.13;;;2.20;99.90;;;;;;5031009;28;20385;-50
2023/12/15 04:22:55;;;;;;;14.07;8.93;;;2.40;99.90;;;;;;5026057;28;20243;-51
2023/12/15 04:25:20;;;;;;;11.30;8.57;;;2.30;99.90;;;;;;5034830;28;20224;-50
2023/12/15 04:27:46;;;;;;;9.73;7.60;;;2.30;99.90;;;;;;5032134;28;20743;-51
2023/12/15 04:30:12;;;;;;;8.70;6.80;;;2.30;99.90;;;;;;5032056;28;20199;-51
2023/12/15 04:32:37;;;;;;;10.90;8.57;;;2.00;99.90;;;;;;5030874;28;20220;-51
2023/12/15 04:35:03;;;;;;;12.23;6.83;;;1.70;99.90;;;;;;5031080;28;20199;-50
2023/12/15 04:37:29;;;;;;;8.23;6.10;;;1.60;99.90;;;;;;5031107;28;20209;-51
2023/12/15 04:39:54;;;;;;;14.50;7.43;;;1.20;99.90;;;;;;5013809;28;20250;-51
2023/12/15 04:42:20;;;;;;;8.83;7.10;;;1.40;99.90;;;;;;5034792;28;20245;-50
2023/12/15 04:44:45;;;;;;;10.27;7.57;;;1.50;99.90;;;;;;5026729;28;20663;-50
2023/12/15 04:47:11;;;;;;;13.60;7.83;;;1.70;99.90;;;;;;5028679;28;20315;-49
2023/12/15 04:49:38;;;;;;;16.77;7.77;;;1.90;99.90;;;;;;5034473;28;20741;-49
2023/12/15 04:52:04;;;;;;;10.80;7.80;;;2.00;99.90;;;;;;5033956;28;20666;-51
2023/12/15 04:54:29;;;;;;;13.83;7.23;;;2.10;99.90;;;;;;5012858;28;20304;-50
2023/12/15 04:56:55;;;;;;;12.67;8.07;;;2.30;99.90;;;;;;5017236;28;20196;-51
2023/12/15 04:59:20;;;;;;;12.03;7.40;;;2.30;99.90;;;;;;5033996;28;20700;-52
2023/12/15 05:01:46;;;;;;;10.87;7.33;;;2.20;99.90;;;;;;5041196;28;20282;-51
2023/12/15 05:04:11;;;;;;;10.40;7.67;;;2.00;99.90;;;;;;5038239;28;20568;-51
2023/12/15 05:06:37;;;;;;;13.13;8.07;;;1.50;99.90;;;;;;5038624;28;20189;-53
2023/12/15 05:09:04;;;;;;;13.73;7.73;;;1.40;99.90;;;;;;5038313;28;20198;-60
2023/12/15 05:11:34;;;;;;;9.10;7.00;;;1.40;99.90;;;;;;5030342;28;20282;-51
2023/12/15 05:14:00;;;;;;;10.30;7.10;;;1.50;99.90;;;;;;5041644;28;20256;-51
2023/12/15 05:16:25;;;;;;;11.47;6.97;;;1.70;99.90;;;;;;5037961;28;20205;-50
2023/12/15 05:18:51;;;;;;;10.53;7.50;;;2.10;99.90;;;;;;5039405;28;20198;-52
2023/12/15 05:21:16;;;;;;;16.00;8.10;;;2.10;99.90;;;;;;5040651;28;20240;-51
2023/12/15 05:23:42;;;;;;;11.80;8.33;;;1.80;99.90;;;;;;5017031;28;20286;-51
2023/12/15 05:26:07;;;;;;;13.73;8.63;;;1.80;99.90;;;;;;5042053;28;20229;-51
2023/12/15 05:28:32;;;;;;;11.83;8.23;;;1.80;99.90;;;;;;5040080;28;20291;-51
2023/12/15 05:30:58;;;;;;;10.97;7.67;;;1.90;99.90;;;;;;5030567;28;20288;-50
2023/12/15 05:33:24;;;;;;;10.80;7.50;;;2.00;99.90;;;;;;5040673;28;20212;-51
2023/12/15 05:35:50;;;;;;;12.30;9.40;;;2.10;99.90;;;;;;5034057;28;20201;-51
2023/12/15 05:38:16;;;;;;;16.07;9.10;;;2.00;99.90;;;;;;5036268;28;20712;-50
2023/12/15 05:40:41;;;;;;;16.93;8.90;;;2.00;99.90;;;;;;5040041;28;20542;-51
2023/12/15 05:43:07;;;;;;;13.00;8.80;;;2.10;99.90;;;;;;5039796;28;20767;-50
2023/12/15 05:45:32;;;;;;;15.57;10.73;;;2.30;99.90;;;;;;5036930;28;20242;-50
2023/12/15 05:47:58;;;;;;;14.03;8.83;;;2.40;99.90;;;;;;5031489;28;20258;-50
2023/12/15 05:50:23;;;;;;;13.80;9.23;;;2.40;99.90;;;;;;5034136;28;20204;-50
2023/12/15 05:52:49;;;;;;;16.10;8.87;;;2.50;99.90;;;;;;5034027;28;20275;-50
2023/12/15 05:55:14;;;;;;;15.33;9.87;;;2.30;99.90;;;;;;5034776;28;20209;-50
2023/12/15 05:57:40;;;;;;;17.37;9.90;;;2.40;99.90;;;;;;5033058;28;20703;-50
2023/12/15 06:00:06;;;;;;;14.53;9.80;;;2.50;99.90;;;;;;5014404;28;20209;-51
2023/12/15 06:02:31;;;;;;;15.33;10.10;;;2.70;99.90;;;;;;5038802;28;20944;-49
2023/12/15 06:04:58;;;;;;;22.23;12.23;;;2.80;99.90;;;;;;5035899;28;20301;-49
2023/12/15 06:07:24;;;;;;;18.60;11.77;;;2.90;99.90;;;;;;5037750;28;20543;-49
2023/12/15 06:09:49;;;;;;;19.97;11.90;;;2.90;99.90;;;;;;5032099;28;20281;-49
2023/12/15 06:12:16;;;;;;;20.00;10.57;;;3.00;99.90;;;;;;5036488;28;20229;-50
2023/12/15 06:14:41;;;;;;;17.40;10.63;;;2.90;99.90;;;;;;5036917;28;20262;-49
2023/12/15 06:17:06;;;;;;;20.87;12.03;;;3.00;99.90;;;;;;5028758;28;20217;-50
2023/12/15 06:19:33;;;;;;;19.27;11.20;;;3.10;99.90;;;;;;5040882;28;20210;-50
2023/12/15 06:22:00;;;;;;;17.10;10.60;;;3.10;99.90;;;;;;5019497;28;20195;-49
2023/12/15 06:24:26;;;;;;;16.57;10.53;;;3.00;99.90;;;;;;5034781;28;20988;-49
2023/12/15 06:26:51;;;;;;;19.87;12.27;;;3.00;99.90;;;;;;5039654;28;20219;-50
2023/12/15 06:29:17;;;;;;;20.83;13.00;;;3.00;99.90;;;;;;5032628;28;20218;-49
2023/12/15 06:31:46;;;;;;;17.83;11.33;;;3.00;99.90;;;;;;5026767;28;20297;-50
2023/12/15 06:34:12;;;;;;;22.23;12.43;;;3.00;99.90;;;;;;5034524;28;20637;-49
2023/12/15 06:36:38;;;;;;;18.13;12.10;;;3.20;99.90;;;;;;5037689;28;20898;-49
2023/12/15 06:39:04;;;;;;;18.10;13.40;;;3.20;99.90;;;;;;5037433;28;20228;-50
2023/12/15 06:41:29;;;;;;;18.87;12.00;;;3.10;99.90;;;;;;5029077;28;20708;-49
2023/12/15 06:43:55;;;;;;;22.77;13.33;;;2.80;99.90;;;;;;5037834;28;20206;-49
2023/12/15 06:46:21;;;;;;;17.70;12.40;;;2.80;99.90;;;;;;5034046;28;20263;-51
2023/12/15 06:48:47;;;;;;;19.97;13.43;;;2.70;99.90;;;;;;5041534;28;20571;-50
2023/12/15 06:51:12;;;;;;;21.73;13.57;;;2.70;99.90;;;;;;5036445;28;20228;-50
2023/12/15 06:53:38;;;;;;;20.77;14.20;;;2.80;99.90;;;;;;5039508;28;20212;-50
2023/12/15 06:56:04;;;;;;;23.07;13.13;;;3.10;99.90;;;;;;5037245;28;20758;-56
2023/12/15 06:58:29;;;;;;;22.03;12.50;;;3.20;99.90;;;;;;5041080;28;20189;-55
2023/12/15 07:00:55;;;;;;;20.53;13.57;;;3.20;99.90;;;;;;5019807;28;20776;-51
2023/12/15 07:03:20;;;;;;;21.60;13.63;;;3.10;99.90;;;;;;5038550;28;20202;-50
2023/12/15 07:05:46;;;;;;;24.93;15.40;;;3.00;99.90;;;;;;5041348;28;20350;-50
2023/12/15 07:08:11;;;;;;;22.03;14.60;;;2.80;99.90;;;;;;5032968;28;20202;-50
2023/12/15 07:10:37;;;;;;;25.53;14.40;;;2.80;99.90;;;;;;5028147;28;20197;-50
2023/12/15 07:13:02;;;;;;;20.13;14.03;;;2.90;99.90;;;;;;5040072;28;20217;-50
2023/12/15 07:15:29;;;;;;;26.47;14.43;;;3.00;99.90;;;;;;5015348;28;20615;-50
2023/12/15 07:17:55;;;;;;;23.87;13.97;;;3.20;99.90;;;;;;5019896;28;20198;-50
2023/12/15 07:20:21;;;;;;;24.37;16.40;;;3.20;99.90;;;;;;5035409;28;20206;-50
2023/12/15 07:22:46;;;;;;;28.63;16.90;;;3.30;99.90;;;;;;5040875;28;20206;-50
2023/12/15 07:25:12;;;;;;;27.00;14.90;;;3.20;99.90;;;;;;5032314;28;20236;-50
2023/12/15 07:27:38;;;;;;;26.83;15.77;;;3.10;99.90;;;;;;5034558;28;20201;-51
2023/12/15 07:30:04;;;;;;;24.27;15.30;;;3.30;99.90;;;;;;5014999;28;20198;-51
2023/12/15 07:32:29;;;;;;;25.77;15.87;;;3.00;99.90;;;;;;5037714;28;20823;-50
2023/12/15 07:34:56;;;;;;;26.20;15.33;;;3.10;99.90;;;;;;5015287;28;20281;-50
2023/12/15 07:37:21;;;;;;;25.20;15.70;;;3.10;99.90;;;;;;5037550;28;20206;-51
2023/12/15 07:39:46;;;;;;;27.23;16.40;;;3.00;99.90;;;;;;5032469;28;20197;-51
2023/12/15 07:42:12;;;;;;;25.90;16.33;;;2.90;99.90;;;;;;5031193;28;20206;-51
2023/12/15 07:44:37;;;;;;;23.60;15.40;;;3.00;99.90;;;;;;5029101;28;20790;-49
2023/12/15 07:47:03;;;;;;;26.83;16.77;;;3.20;99.90;;;;;;5036197;28;20555;-51
2023/12/15 07:49:33;;;;;;;23.50;15.63;;;3.50;99.90;;;;;;5030954;28;20189;-54
2023/12/15 07:51:59;;;;;;;23.73;15.80;;;3.40;99.90;;;;;;5041699;28;20221;-49
2023/12/15 07:54:25;;;;;;;30.30;16.37;;;3.30;99.90;;;;;;5033731;28;20205;-50
2023/12/15 07:56:50;;;;;;;24.67;15.23;;;3.30;99.90;;;;;;5031410;28;20220;-50
2023/12/15 07:59:16;;;;;;;22.90;15.70;;;3.60;99.90;;;;;;5042427;28;20293;-51
2023/12/15 08:01:47;;;;;;;30.17;15.67;;;3.70;99.90;;;;;;5025459;28;20203;-51
2023/12/15 08:04:13;;;;;;;28.33;17.30;;;3.50;99.90;;;;;;5036476;28;20197;-51
2023/12/15 08:06:38;;;;;;;25.03;17.17;;;3.40;99.90;;;;;;5033152;28;20289;-50
2023/12/15 08:09:04;;;;;;;31.07;18.33;;;3.40;99.90;;;;;;5040144;28;20259;-50
2023/12/15 08:11:29;;;;;;;32.23;16.87;;;3.60;99.90;;;;;;5029772;28;20753;-50
2023/12/15 08:13:55;;;;;;;28.97;17.90;;;3.80;99.90;;;;;;5040654;28;20284;-50
2023/12/15 08:16:21;;;;;;;32.53;17.63;;;3.90;99.90;;;;;;5036379;28;20202;-50
2023/12/15 08:18:46;;;;;;;29.97;18.43;;;3.80;99.90;;;;;;5041085;28;20212;-50
2023/12/15 08:21:12;;;;;;;33.37;18.10;;;3.70;99.90;;;;;;5029208;28;20190;-50
2023/12/15 08:23:37;;;;;;;31.97;17.70;;;3.80;99.90;;;;;;5035451;28;20200;-50
2023/12/15 08:26:03;;;;;;;35.53;18.70;;;3.70;99.90;;;;;;5013549;28;20223;-49
2023/12/15 08:28:28;;;;;;;29.13;19.57;;;3.80;99.90;;;;;;5034630;28;20193;-52
2023/12/15 08:30:54;;;;;;;38.17;21.73;;;3.80;99.90;;;;;;5031913;28;20263;-52
2023/12/15 08:33:20;;;;;;;31.23;18.20;;;3.80;99.90;;;;;;5040281;28;20257;-49
2023/12/15 08:35:45;;;;;;;33.33;19.23;;;3.80;99.90;;;;;;5027976;28;20236;-51
2023/12/15 08:38:11;;;;;;;33.77;18.37;;;3.80;99.90;;;;;;5033653;28;20221;-51
2023/12/15 08:40:36;;;;;;;33.03;19.40;;;3.90;99.90;;;;;;5020404;28;20209;-51
2023/12/15 08:43:02;;;;;;;31.63;19.83;;;3.90;99.90;;;;;;5034041;28;21092;-51
2023/12/15 08:45:31;;;;;;;33.73;18.77;;;3.90;99.90;;;;;;5031659;28;20252;-51
2023/12/15 08:47:57;;;;;;;30.27;18.03;;;3.80;99.90;;;;;;5020651;28;20211;-50
2023/12/15 08:50:23;;;;;;;28.30;18.63;;;3.80;99.90;;;;;;5034363;28;20196;-50
2023/12/15 08:52:49;;;;;;;31.47;18.03;;;3.80;99.90;;;;;;5036399;28;20220;-52
2023/12/15 08:55:14;;;;;;;29.57;18.87;;;3.90;99.90;;;;;;5038257;28;20192;-51
2023/12/15 08:57:40;;;;;;;35.10;20.30;;;3.90;99.90;;;;;;5034521;28;20259;-52
2023/12/15 09:00:06;;;;;;;34.63;19.87;;;3.90;99.90;;;;;;5033279;28;20186;-52
2023/12/15 09:02:33;;;;;;;29.67;18.73;;;3.80;99.90;;;;;;5017955;28;20198;-57
2023/12/15 09:05:00;;;;;;;29.00;17.33;;;3.80;99.90;;;;;;5038610;28;20181;-57
2023/12/15 09:07:26;;;;;;;26.13;16.63;;;3.90;99.90;;;;;;5034151;28;20179;-55
2023/12/15 09:09:51;;;;;;;29.43;19.30;;;4.00;99.90;;;;;;5032337;28;20179;-55
2023/12/15 09:12:17;;;;;;;30.57;18.57;;;4.00;99.90;;;;;;5033307;28;20234;-55
2023/12/15 09:14:42;;;;;;;27.20;17.63;;;4.00;99.90;;;;;;5029299;28;20188;-62
2023/12/15 09:17:11;;;;;;;31.07;18.23;;;4.00;99.90;;;;;;5029987;28;20209;-54
2023/12/15 09:19:38;;;;;;;35.47;17.93;;;4.10;99.90;;;;;;5029527;28;20191;-55
2023/12/15 09:22:05;;;;;;;28.43;18.20;;;4.10;99.90;;;;;;5035534;28;20576;-55
2023/12/15 09:24:30;;;;;;;30.47;17.47;;;4.20;99.90;;;;;;5010910;28;20198;-55
2023/12/15 09:26:56;;;;;;;31.13;18.30;;;4.30;99.90;;;;;;5036793;28;20425;-55
2023/12/15 09:29:21;;;;;;;33.77;18.13;;;4.30;99.90;;;;;;5031790;28;20749;-62
2023/12/15 09:31:47;;;;;;;30.37;17.67;;;4.30;99.90;;;;;;5016149;28;20214;-56
2023/12/15 09:34:13;;;;;;;26.63;15.97;;;4.30;99.90;;;;;;5038057;28;20202;-59
2023/12/15 09:36:39;;;;;;;30.20;18.00;;;4.30;99.90;;;;;;5032321;28;20304;-55
2023/12/15 09:41:36;;;;;;;27.57;17.43;;;4.50;99.90;;;;;;5061503;28;20243;-55
2023/12/15 09:44:02;;;;;;;29.07;17.53;;;4.60;99.90;;;;;;5048209;28;20206;-55
2023/12/15 09:46:29;;;;;;;31.43;16.93;;;4.60;99.90;;;;;;5036472;28;20584;-55
2023/12/15 09:48:55;;;;;;;25.93;17.70;;;4.50;99.90;;;;;;5061730;28;20901;-55
2023/12/15 09:51:25;;;;;;;27.77;17.53;;;4.70;99.90;;;;;;5061954;28;20233;-55
2023/12/15 09:53:52;;;;;;;29.93;17.57;;;4.70;99.90;;;;;;5012732;28;20202;-55
2023/12/15 09:56:18;;;;;;;31.60;17.17;;;4.70;99.90;;;;;;5052548;28;20287;-55
2023/12/15 09:58:44;;;;;;;31.10;18.17;;;4.60;99.90;;;;;;5034761;28;20194;-55
2023/12/15 10:01:12;;;;;;;30.30;17.67;;;4.70;99.90;;;;;;5054634;28;20211;-56
2023/12/15 10:03:39;;;;;;;27.30;16.47;;;4.80;99.90;;;;;;5038099;28;20191;-56
2023/12/15 10:06:05;;;;;;;28.27;17.23;;;4.80;99.90;;;;;;5057730;28;20210;-55
2023/12/15 10:08:40;;;;;;;28.30;15.23;;;4.80;99.90;;;;;;5044699;28;20188;-55
2023/12/15 10:11:05;;;;;;;29.40;17.53;;;4.90;99.90;;;;;;5055176;28;20746;-55
2023/12/15 10:13:31;;;;;;;28.23;17.97;;;4.70;99.90;;;;;;5044549;28;20199;-55
2023/12/15 10:15:57;;;;;;;24.27;15.93;;;4.60;99.90;;;;;;5042906;28;20224;-55
2023/12/15 10:18:23;;;;;;;27.20;16.73;;;4.60;99.90;;;;;;5041767;28;20608;-55
2023/12/15 10:20:48;;;;;;;26.53;16.30;;;4.40;99.90;;;;;;5054515;28;20198;-55
2023/12/15 10:23:14;;;;;;;26.23;18.20;;;4.30;99.90;;;;;;5007690;28;20774;-55
2023/12/15 10:25:47;;;;;;;25.20;16.73;;;4.60;99.90;;;;;;5055560;28;20544;-55
2023/12/15 10:28:15;;;;;;;28.93;16.80;;;4.60;99.90;;;;;;5038043;28;20262;-55
2023/12/15 10:30:40;;;;;;;27.67;16.57;;;4.70;99.90;;;;;;5031768;28;20201;-55
2023/12/15 10:33:07;;;;;;;26.37;16.70;;;4.70;99.90;;;;;;5044525;28;20206;-55
2023/12/15 10:35:35;;;;;;;27.77;17.90;;;4.80;99.90;;;;;;5036792;28;20206;-55
2023/12/15 10:38:01;;;;;;;23.73;16.53;;;4.60;99.90;;;;;;5027009;28;20266;-55
2023/12/15 10:40:26;;;;;;;24.07;15.80;;;4.70;99.90;;;;;;5036282;28;20636;-55
2023/12/15 10:42:53;;;;;;;25.57;16.57;;;4.80;99.90;;;;;;5042314;28;20609;-55
2023/12/15 10:45:20;;;;;;;24.77;16.37;;;4.80;99.90;;;;;;5021866;28;20286;-55
2023/12/15 10:47:48;;;;;;;28.43;17.70;;;5.00;99.90;;;;;;5042780;28;20195;-55
2023/12/15 10:50:15;;;;;;;22.83;16.03;;;5.00;99.90;;;;;;5032734;28;20199;-55
2023/12/15 10:52:43;;;;;;;21.90;16.37;;;5.00;99.90;;;;;;5037974;28;20309;-55
2023/12/15 10:55:10;;;;;;;24.07;16.40;;;5.00;99.90;;;;;;5032431;28;20207;-55
2023/12/15 10:57:36;;;;;;;24.80;17.83;;;4.90;99.90;;;;;;5006726;28;20254;-55
2023/12/15 11:00:04;;;;;;;24.77;16.27;;;4.90;99.90;;;;;;5025714;28;20203;-55
2023/12/15 11:02:31;;;;;;;27.07;16.43;;;4.90;99.90;;;;;;5040305;28;20190;-55
2023/12/15 11:04:59;;;;;;;22.73;16.43;;;4.80;99.90;;;;;;5031771;28;20213;-54
2023/12/15 11:07:25;;;;;;;27.40;15.93;;;4.90;99.90;;;;;;5031075;28;20195;-55
2023/12/15 11:09:51;;;;;;;27.17;16.63;;;4.70;99.90;;;;;;5045245;28;20198;-54
2023/12/15 11:12:32;;;;;;;24.77;16.33;;;4.70;99.90;;;;;;5063126;28;20194;-55
2023/12/15 11:15:06;;;;;;;28.07;17.53;;;4.60;99.90;;;;;;5031119;28;20199;-54
2023/12/15 11:17:33;;;;;;;27.43;17.57;;;4.50;99.90;;;;;;5032227;28;20687;-54
2023/12/15 11:20:07;;;;;;;27.07;17.87;;;4.60;99.90;;;;;;5031080;28;20199;-54
2023/12/15 11:22:57;;;;;;;29.13;17.90;;;4.80;99.90;;;;;;5012265;28;20370;-55
2023/12/15 11:25:32;;;;;;;26.40;16.83;;;4.80;99.90;;;;;;5042127;28;20214;-56
2023/12/15 11:28:15;;;;;;;29.10;16.93;;;4.80;99.90;;;;;;5042879;28;20194;-55
2023/12/15 11:30:44;;;;;;;26.07;16.97;;;4.70;99.90;;;;;;5042459;28;20194;-55
2023/12/15 11:33:27;;;;;;;26.43;18.17;;;4.80;99.90;;;;;;5036768;28;20206;-54
2023/12/15 11:36:01;;;;;;;27.93;16.67;;;4.70;99.90;;;;;;5038978;28;20201;-55
2023/12/15 11:38:27;;;;;;;24.80;16.60;;;4.60;99.90;;;;;;5039033;28;20557;-54
2023/12/15 11:40:53;;;;;;;25.67;17.73;;;4.70;99.90;;;;;;5047088;28;20734;-55
2023/12/15 11:43:20;;;;;;;26.63;16.73;;;4.50;99.90;;;;;;5026173;28;20194;-55
2023/12/15 11:45:48;;;;;;;30.03;17.63;;;4.70;99.90;;;;;;5033944;28;20238;-54
2023/12/15 11:48:14;;;;;;;25.10;16.10;;;4.50;99.90;;;;;;5017730;28;20206;-55
2023/12/15 11:50:43;;;;;;;32.13;18.33;;;4.70;99.90;;;;;;5044358;28;20198;-56
2023/12/15 11:53:12;;;;;;;29.60;17.27;;;4.70;99.90;;;;;;5023705;28;20824;-55
2023/12/15 11:55:38;;;;;;;29.40;17.47;;;4.80;99.90;;;;;;5034631;28;20692;-56
2023/12/15 11:58:03;;;;;;;24.57;16.03;;;4.80;99.90;;;;;;5033196;28;20231;-57
2023/12/15 12:00:30;;;;;;;28.43;17.70;;;4.80;99.90;;;;;;5039913;28;20232;-55
2023/12/15 12:02:56;;;;;;;38.90;19.70;;;4.80;99.90;;;;;;5021166;28;20286;-55
2023/12/15 12:05:22;;;;;;;30.57;18.67;;;4.90;99.90;;;;;;5040757;28;20210;-54
2023/12/15 12:07:48;;;;;;;27.20;16.40;;;4.90;99.90;;;;;;5025219;28;20203;-54
2023/12/15 12:10:14;;;;;;;35.40;18.63;;;5.00;99.90;;;;;;5032838;28;20209;-54
2023/12/15 12:12:40;;;;;;;28.27;16.80;;;5.00;99.90;;;;;;5031837;28;20207;-56
2023/12/15 12:15:07;;;;;;;28.47;17.73;;;5.00;99.90;;;;;;5031033;28;20201;-55
2023/12/15 12:17:34;;;;;;;29.57;18.97;;;5.10;99.90;;;;;;5025275;28;20778;-54
2023/12/15 12:20:10;;;;;;;32.57;20.80;;;5.00;99.90;;;;;;5026419;28;20728;-55
2023/12/15 12:22:40;;;;;;;27.70;18.00;;;5.00;99.90;;;;;;5033920;28;20175;-56
2023/12/15 12:25:06;;;;;;;36.93;19.73;;;4.90;99.90;;;;;;5035905;28;20253;-55
2023/12/15 12:27:33;;;;;;;29.20;17.83;;;5.00;99.90;;;;;;5034067;28;20182;-57
2023/12/15 12:29:59;;;;;;;32.50;18.27;;;4.90;99.90;;;;;;5037442;28;20205;-55
2023/12/15 12:32:25;;;;;;;35.97;20.73;;;4.70;99.90;;;;;;5033986;28;20374;-55
2023/12/15 12:34:51;;;;;;;30.83;18.87;;;4.80;99.90;;;;;;5038205;28;20186;-54
2023/12/15 12:37:17;;;;;;;35.23;18.53;;;4.80;99.90;;;;;;5034057;28;20209;-57
2023/12/15 12:39:42;;;;;;;31.70;17.90;;;4.50;99.90;;;;;;5032939;28;20212;-57